createdAt,value
2022-10-01T00:01:16.559Z,98477.00
2022-10-01T00:02:51.446Z,98480.00
2022-10-01T00:04:25.179Z,98477.00
2022-10-01T00:06:03.660Z,98482.00
2022-10-01T00:07:40.064Z,98476.00
2022-10-01T00:09:12.835Z,98471.00
2022-10-01T00:10:46.909Z,98453.00
2022-10-01T00:12:20.167Z,98459.00
2022-10-01T00:13:54.444Z,98457.00
2022-10-01T00:15:27.794Z,98438.00
2022-10-01T00:17:01.089Z,98440.00
2022-10-01T00:18:38.061Z,98441.00
2022-10-01T00:20:14.565Z,98424.00
2022-10-01T00:21:48.669Z,98436.00
2022-10-01T00:23:21.097Z,98432.00
2022-10-01T00:24:54.433Z,98432.00
2022-10-01T00:26:31.153Z,98424.00
2022-10-01T00:28:04.449Z,98422.00
2022-10-01T00:29:37.676Z,98416.00
2022-10-01T00:31:11.559Z,98414.00
2022-10-01T00:32:44.928Z,98417.00
2022-10-01T00:34:19.664Z,98411.00
2022-10-01T00:35:55.212Z,98411.00
2022-10-01T00:37:28.836Z,98396.00
2022-10-01T00:39:02.306Z,98398.00
2022-10-01T00:40:34.626Z,98405.00
2022-10-01T00:42:19.665Z,98392.00
2022-10-01T00:43:59.995Z,98397.00
2022-10-01T00:45:32.297Z,98390.00
2022-10-01T00:47:22.584Z,98395.00
2022-10-01T00:49:03.520Z,98392.00
2022-10-01T00:50:39.028Z,98398.00
2022-10-01T00:52:19.448Z,98394.00
2022-10-01T00:53:53.827Z,98387.00
2022-10-01T00:55:33.887Z,98392.00
2022-10-01T00:57:09.275Z,98385.00
2022-10-01T00:58:43.959Z,98375.00
2022-10-01T01:00:22.558Z,98370.00
2022-10-01T01:02:02.162Z,98373.00
2022-10-01T01:03:41.604Z,98361.00
2022-10-01T01:05:19.425Z,98366.00
2022-10-01T01:07:00.901Z,98374.00
2022-10-01T01:08:35.526Z,98352.00
2022-10-01T01:10:12.720Z,98358.00
2022-10-01T01:12:02.520Z,98356.00
2022-10-01T01:13:50.815Z,98346.00
2022-10-01T01:15:36.927Z,98345.00
2022-10-01T01:17:23.777Z,98350.00
2022-10-01T01:19:11.767Z,98349.00
2022-10-01T01:21:13.051Z,98351.00
2022-10-01T01:23:00.576Z,98346.00
2022-10-01T01:24:58.690Z,98350.00
2022-10-01T01:26:47.192Z,98350.00
2022-10-01T01:28:31.619Z,98353.00
2022-10-01T01:30:09.434Z,98354.00
2022-10-01T01:31:46.533Z,98356.00
2022-10-01T01:33:24.169Z,98356.00
2022-10-01T01:35:02.643Z,98364.00
2022-10-01T01:36:38.313Z,98354.00
2022-10-01T01:38:17.459Z,98352.00
2022-10-01T01:39:56.096Z,98355.00
2022-10-01T01:41:35.757Z,98351.00
2022-10-01T01:43:17.388Z,98338.00
2022-10-01T01:44:58.230Z,98336.00
2022-10-01T01:46:35.645Z,98322.00
2022-10-01T01:48:13.075Z,98329.00
2022-10-01T01:49:50.107Z,98322.00
2022-10-01T01:51:33.481Z,98312.00
2022-10-01T01:53:07.175Z,98310.00
2022-10-01T01:54:40.696Z,98305.00
2022-10-01T01:56:14.739Z,98302.00
2022-10-01T01:57:48.047Z,98302.00
2022-10-01T01:59:20.727Z,98289.00
2022-10-01T02:00:59.043Z,98285.00
2022-10-01T02:02:39.075Z,98274.00
2022-10-01T02:04:26.459Z,98263.00
2022-10-01T02:06:14.215Z,98274.00
2022-10-01T02:08:28.755Z,98263.00
2022-10-01T02:10:17.779Z,98254.00
2022-10-01T02:12:09.167Z,98245.00
2022-10-01T02:13:54.719Z,98238.00
2022-10-01T02:15:37.450Z,98230.00
2022-10-01T02:17:25.723Z,98228.00
2022-10-01T02:19:05.253Z,98215.00
2022-10-01T02:20:46.626Z,98209.00
2022-10-01T02:22:24.031Z,98200.00
2022-10-01T02:24:05.669Z,98201.00
2022-10-01T02:25:44.658Z,98201.00
2022-10-01T02:27:28.603Z,98187.00
2022-10-01T02:29:08.382Z,98184.00
2022-10-01T02:30:44.879Z,98185.00
2022-10-01T02:32:20.083Z,98184.00
2022-10-01T02:33:56.896Z,98194.00
2022-10-01T02:35:32.819Z,98192.00
2022-10-01T02:37:11.976Z,98205.00
2022-10-01T02:38:48.032Z,98196.00
2022-10-01T02:40:26.162Z,98195.00
2022-10-01T02:42:02.634Z,98196.00
2022-10-01T02:43:43.099Z,98202.00
2022-10-01T02:45:22.321Z,98198.00
2022-10-01T02:47:07.588Z,98191.00
2022-10-01T02:48:41.966Z,98195.00
2022-10-01T02:50:16.580Z,98204.00
2022-10-01T02:52:00.744Z,98191.00
2022-10-01T02:53:43.552Z,98198.00
2022-10-01T02:55:25.884Z,98194.00
2022-10-01T02:57:18.449Z,98194.00
2022-10-01T02:58:52.489Z,98193.00
2022-10-01T03:00:44.708Z,98205.00
2022-10-01T03:02:17.230Z,98201.00
2022-10-01T03:03:53.795Z,98200.00
2022-10-01T03:05:28.097Z,98193.00
2022-10-01T03:07:03.855Z,98202.00
2022-10-01T03:08:37.402Z,98203.00
2022-10-01T03:10:12.706Z,98207.00
2022-10-01T03:11:45.027Z,98201.00
2022-10-01T03:13:19.702Z,98199.00
2022-10-01T03:14:53.917Z,98197.00
2022-10-01T03:16:27.215Z,98199.00
2022-10-01T03:18:00.539Z,98199.00
2022-10-01T03:19:35.381Z,98190.00
2022-10-01T03:21:08.966Z,98165.00
2022-10-01T03:22:45.294Z,98162.00
2022-10-01T03:24:18.914Z,98155.00
2022-10-01T03:25:52.448Z,98171.00
2022-10-01T03:27:26.031Z,98156.00
2022-10-01T03:28:59.331Z,98156.00
2022-10-01T03:30:33.158Z,98152.00
2022-10-01T03:32:06.675Z,98144.00
2022-10-01T03:33:41.084Z,98156.00
2022-10-01T03:35:15.880Z,98164.00
2022-10-01T03:36:49.903Z,98163.00
2022-10-01T03:38:23.470Z,98151.00
2022-10-01T03:39:56.775Z,98139.00
2022-10-01T03:41:29.992Z,98137.00
2022-10-01T03:43:03.361Z,98134.00
2022-10-01T03:44:35.948Z,98127.00
2022-10-01T03:46:09.205Z,98138.00
2022-10-01T03:47:42.731Z,98132.00
2022-10-01T03:49:16.080Z,98134.00
2022-10-01T03:50:59.481Z,98130.00
2022-10-01T03:52:32.753Z,98134.00
2022-10-01T03:54:08.008Z,98145.00
2022-10-01T03:55:41.372Z,98131.00
2022-10-01T03:57:14.881Z,98121.00
2022-10-01T03:58:48.284Z,98133.00
2022-10-01T04:00:20.518Z,98134.00
2022-10-01T04:01:54.200Z,98131.00
2022-10-01T04:03:27.877Z,98130.00
2022-10-01T04:05:00.272Z,98133.00
2022-10-01T04:06:35.448Z,98129.00
2022-10-01T04:08:08.160Z,98136.00
2022-10-01T04:09:41.455Z,98130.00
2022-10-01T04:11:15.005Z,98138.00
2022-10-01T04:12:47.772Z,98131.00
2022-10-01T04:14:21.307Z,98154.00
2022-10-01T04:15:53.544Z,98144.00
2022-10-01T04:17:27.966Z,98156.00
2022-10-01T04:19:01.361Z,98155.00
2022-10-01T04:20:35.191Z,98156.00
2022-10-01T04:22:10.041Z,98154.00
2022-10-01T04:23:43.675Z,98144.00
2022-10-01T04:25:17.903Z,98132.00
2022-10-01T04:26:52.814Z,98141.00
2022-10-01T04:28:25.480Z,98137.00
2022-10-01T04:29:59.237Z,98125.00
2022-10-01T04:31:35.341Z,98122.00
2022-10-01T04:33:13.871Z,98105.00
2022-10-01T04:34:52.745Z,98105.00
2022-10-01T04:36:27.111Z,98097.00
2022-10-01T04:38:04.820Z,98095.00
2022-10-01T04:39:38.058Z,98090.00
2022-10-01T04:41:13.628Z,98069.00
2022-10-01T04:42:47.150Z,98067.00
2022-10-01T04:44:20.443Z,98061.00
2022-10-01T04:45:54.239Z,98064.00
2022-10-01T04:47:26.488Z,98067.00
2022-10-01T04:49:01.044Z,98079.00
2022-10-01T04:50:34.135Z,98086.00
2022-10-01T04:52:08.004Z,98088.00
2022-10-01T04:53:42.938Z,98084.00
2022-10-01T04:55:18.378Z,98062.00
2022-10-01T04:56:52.668Z,98058.00
2022-10-01T04:58:26.800Z,98053.00
2022-10-01T05:00:00.055Z,98052.00
2022-10-01T05:01:33.680Z,98043.00
2022-10-01T05:03:06.346Z,98043.00
2022-10-01T05:04:39.879Z,98050.00
2022-10-01T05:06:24.137Z,98050.00
2022-10-01T05:07:59.675Z,98061.00
2022-10-01T05:09:34.257Z,98063.00
2022-10-01T05:11:07.690Z,98070.00
2022-10-01T05:12:41.324Z,98064.00
2022-10-01T05:14:16.149Z,98063.00
2022-10-01T05:15:52.347Z,98054.00
2022-10-01T05:17:24.890Z,98068.00
2022-10-01T05:18:58.895Z,98061.00
2022-10-01T05:20:33.954Z,98070.00
2022-10-01T05:22:07.397Z,98076.00
2022-10-01T05:23:40.768Z,98086.00
2022-10-01T05:25:14.637Z,98082.00
2022-10-01T05:26:48.446Z,98080.00
2022-10-01T05:28:22.787Z,98085.00
2022-10-01T05:29:57.029Z,98080.00
2022-10-01T05:31:29.497Z,98083.00
2022-10-01T05:33:05.611Z,98060.00
2022-10-01T05:34:39.969Z,98050.00
2022-10-01T05:36:13.493Z,98056.00
2022-10-01T05:37:47.129Z,98055.00
2022-10-01T05:39:20.429Z,98051.00
2022-10-01T05:40:55.089Z,98054.00
2022-10-01T05:42:28.407Z,98055.00
2022-10-01T05:44:02.907Z,98068.00
2022-10-01T05:45:35.739Z,98074.00
2022-10-01T05:47:09.481Z,98067.00
2022-10-01T05:48:42.782Z,98077.00
2022-10-01T05:50:16.557Z,98075.00
2022-10-01T05:51:49.957Z,98086.00
2022-10-01T05:53:23.526Z,98072.00
2022-10-01T05:54:57.313Z,98078.00
2022-10-01T05:56:32.342Z,98071.00
2022-10-01T05:58:09.627Z,98076.00
2022-10-01T05:59:44.256Z,98072.00
2022-10-01T06:01:17.506Z,98065.00
2022-10-01T06:02:54.050Z,98068.00
2022-10-01T06:04:28.173Z,98083.00
2022-10-01T06:06:01.777Z,98078.00
2022-10-01T06:07:35.147Z,98086.00
2022-10-01T06:09:08.669Z,98092.00
2022-10-01T06:10:42.685Z,98085.00
2022-10-01T06:12:19.821Z,98090.00
2022-10-01T06:13:53.418Z,98083.00
2022-10-01T06:15:25.844Z,98095.00
2022-10-01T06:16:59.204Z,98094.00
2022-10-01T06:18:32.740Z,98085.00
2022-10-01T06:20:07.333Z,98098.00
2022-10-01T06:21:40.960Z,98096.00
2022-10-01T06:23:15.097Z,98090.00
2022-10-01T06:24:48.609Z,98100.00
2022-10-01T06:26:22.986Z,98093.00
2022-10-01T06:28:00.454Z,98091.00
2022-10-01T06:29:33.797Z,98092.00
2022-10-01T06:31:07.565Z,98097.00
2022-10-01T06:32:39.917Z,98099.00
2022-10-01T06:34:13.208Z,98098.00
2022-10-01T06:35:49.397Z,98098.00
2022-10-01T06:37:22.650Z,98102.00
2022-10-01T06:38:56.000Z,98095.00
2022-10-01T06:40:30.739Z,98089.00
2022-10-01T06:42:05.124Z,98101.00
2022-10-01T06:43:39.818Z,98098.00
2022-10-01T06:45:13.255Z,98112.00
2022-10-01T06:46:46.797Z,98102.00
2022-10-01T06:48:21.585Z,98102.00
2022-10-01T06:49:54.778Z,98100.00
2022-10-01T06:51:42.029Z,98105.00
2022-10-01T06:53:17.561Z,98111.00
2022-10-01T06:54:50.301Z,98113.00
2022-10-01T06:56:23.677Z,98115.00
2022-10-01T06:57:58.421Z,98115.00
2022-10-01T06:59:33.116Z,98115.00
2022-10-01T07:01:06.460Z,98119.00
2022-10-01T07:02:40.529Z,98122.00
2022-10-01T07:04:14.052Z,98112.00
2022-10-01T07:05:48.305Z,98121.00
2022-10-01T07:07:21.809Z,98130.00
2022-10-01T07:08:55.448Z,98117.00
2022-10-01T07:10:27.929Z,98122.00
2022-10-01T07:12:01.332Z,98112.00
2022-10-01T07:13:34.901Z,98117.00
2022-10-01T07:15:11.124Z,98117.00
2022-10-01T07:16:44.400Z,98122.00
2022-10-01T07:18:17.870Z,98122.00
2022-10-01T07:19:50.400Z,98130.00
2022-10-01T07:21:24.660Z,98126.00
2022-10-01T07:22:59.848Z,98126.00
2022-10-01T07:24:33.474Z,98126.00
2022-10-01T07:26:08.635Z,98119.00
2022-10-01T07:27:42.836Z,98133.00
2022-10-01T07:29:16.368Z,98120.00
2022-10-01T07:31:02.972Z,98126.00
2022-10-01T07:32:36.595Z,98133.00
2022-10-01T07:34:09.903Z,98117.00
2022-10-01T07:35:43.309Z,98129.00
2022-10-01T07:37:16.571Z,98128.00
2022-10-01T07:38:50.769Z,98138.00
2022-10-01T07:40:24.310Z,98122.00
2022-10-01T07:41:58.744Z,98116.00
2022-10-01T07:43:34.549Z,98127.00
2022-10-01T07:45:09.977Z,98136.00
2022-10-01T07:46:46.359Z,98124.00
2022-10-01T07:48:19.856Z,98125.00
2022-10-01T07:49:53.180Z,98129.00
2022-10-01T07:51:26.653Z,98122.00
2022-10-01T07:53:00.924Z,98125.00
2022-10-01T07:54:34.180Z,98129.00
2022-10-01T07:56:07.859Z,98134.00
2022-10-01T07:57:41.416Z,98127.00
2022-10-01T07:59:14.780Z,98134.00
2022-10-01T08:00:48.294Z,98127.00
2022-10-01T08:02:22.942Z,98120.00
2022-10-01T08:03:56.213Z,98127.00
2022-10-01T08:05:32.119Z,98138.00
2022-10-01T08:07:05.696Z,98135.00
2022-10-01T08:08:39.020Z,98135.00
2022-10-01T08:10:12.343Z,98133.00
2022-10-01T08:11:48.108Z,98138.00
2022-10-01T08:13:24.852Z,98135.00
2022-10-01T08:14:58.332Z,98139.00
2022-10-01T08:16:33.401Z,98140.00
2022-10-01T08:18:08.653Z,98140.00
2022-10-01T08:19:41.189Z,98147.00
2022-10-01T08:21:14.435Z,98160.00
2022-10-01T08:22:47.837Z,98156.00
2022-10-01T08:24:21.300Z,98163.00
2022-10-01T08:25:59.813Z,98165.00
2022-10-01T08:27:33.185Z,98164.00
2022-10-01T08:29:06.806Z,98172.00
2022-10-01T08:30:43.349Z,98169.00
2022-10-01T08:32:19.596Z,98168.00
2022-10-01T08:33:54.736Z,98170.00
2022-10-01T08:35:31.550Z,98173.00
2022-10-01T08:37:05.562Z,98173.00
2022-10-01T08:38:40.545Z,98179.00
2022-10-01T08:40:14.150Z,98187.00
2022-10-01T08:42:00.694Z,98191.00
2022-10-01T08:43:38.309Z,98180.00
2022-10-01T08:45:18.644Z,98191.00
2022-10-01T08:46:54.533Z,98193.00
2022-10-01T08:48:40.765Z,98190.00
2022-10-01T08:50:29.573Z,98201.00
2022-10-01T08:52:11.245Z,98199.00
2022-10-01T08:53:51.441Z,98203.00
2022-10-01T08:55:29.054Z,98201.00
2022-10-01T08:57:06.136Z,98198.00
2022-10-01T08:58:47.408Z,98208.00
2022-10-01T09:00:21.473Z,98208.00
2022-10-01T09:01:56.181Z,98217.00
2022-10-01T09:03:32.752Z,98208.00
2022-10-01T09:05:18.699Z,98212.00
2022-10-01T09:07:03.692Z,98221.00
2022-10-01T09:08:55.828Z,98208.00
2022-10-01T09:10:44.644Z,98216.00
2022-10-01T09:12:33.480Z,98215.00
2022-10-01T09:14:39.827Z,98224.00
2022-10-01T09:16:25.684Z,98225.00
2022-10-01T09:18:13.322Z,98227.00
2022-10-01T09:20:04.815Z,98234.00
2022-10-01T09:21:55.784Z,98233.00
2022-10-01T09:23:31.927Z,98229.00
2022-10-01T09:25:27.274Z,98228.00
2022-10-01T09:27:02.672Z,98233.00
2022-10-01T09:28:36.733Z,98234.00
2022-10-01T09:30:17.625Z,98222.00
2022-10-01T09:31:54.740Z,98230.00
2022-10-01T09:33:35.897Z,98236.00
2022-10-01T09:35:28.386Z,98229.00
2022-10-01T09:37:16.246Z,98226.00
2022-10-01T09:39:05.068Z,98233.00
2022-10-01T09:40:52.935Z,98223.00
2022-10-01T09:42:30.433Z,98220.00
2022-10-01T09:44:04.073Z,98224.00
2022-10-01T09:45:39.798Z,98221.00
2022-10-01T09:47:21.236Z,98221.00
2022-10-01T09:49:02.075Z,98228.00
2022-10-01T09:50:44.176Z,98220.00
2022-10-01T09:52:28.623Z,98223.00
2022-10-01T09:54:14.242Z,98229.00
2022-10-01T09:55:57.159Z,98229.00
2022-10-01T09:57:39.045Z,98226.00
2022-10-01T09:59:22.459Z,98234.00
2022-10-01T10:00:56.824Z,98236.00
2022-10-01T10:02:35.430Z,98244.00
2022-10-01T10:04:10.324Z,98240.00
2022-10-01T10:05:49.175Z,98237.00
2022-10-01T10:07:24.244Z,98244.00
2022-10-01T10:09:00.258Z,98242.00
2022-10-01T10:10:36.850Z,98245.00
2022-10-01T10:12:30.146Z,98249.00
2022-10-01T10:14:05.476Z,98244.00
2022-10-01T10:15:50.202Z,98254.00
2022-10-01T10:17:25.350Z,98249.00
2022-10-01T10:19:02.756Z,98249.00
2022-10-01T10:20:42.797Z,98254.00
2022-10-01T10:22:25.848Z,98260.00
2022-10-01T10:24:02.013Z,98275.00
2022-10-01T10:25:35.345Z,98272.00
2022-10-01T10:27:26.715Z,98270.00
2022-10-01T10:29:02.069Z,98273.00
2022-10-01T10:30:38.548Z,98279.00
2022-10-01T10:32:27.637Z,98278.00
2022-10-01T10:34:08.357Z,98284.00
2022-10-01T10:35:42.493Z,98278.00
2022-10-01T10:37:19.636Z,98289.00
2022-10-01T10:38:54.497Z,98285.00
2022-10-01T10:40:35.549Z,98288.00
2022-10-01T10:42:09.302Z,98286.00
2022-10-01T10:43:45.140Z,98279.00
2022-10-01T10:45:22.438Z,98285.00
2022-10-01T10:47:03.527Z,98281.00
2022-10-01T10:48:43.875Z,98281.00
2022-10-01T10:50:32.172Z,98282.00
2022-10-01T10:52:23.756Z,98283.00
2022-10-01T10:54:00.576Z,98287.00
2022-10-01T10:55:33.952Z,98281.00
2022-10-01T10:57:22.137Z,98283.00
2022-10-01T10:58:55.564Z,98282.00
2022-10-01T11:00:29.677Z,98286.00
2022-10-01T11:02:07.247Z,98288.00
2022-10-01T11:03:49.060Z,98282.00
2022-10-01T11:05:25.992Z,98278.00
2022-10-01T11:07:02.352Z,98283.00
2022-10-01T11:08:35.972Z,98285.00
2022-10-01T11:10:29.968Z,98278.00
2022-10-01T11:12:23.451Z,98291.00
2022-10-01T11:14:23.916Z,98290.00
2022-10-01T11:16:29.460Z,98290.00
2022-10-01T11:18:26.669Z,98298.00
2022-10-01T11:20:32.277Z,98302.00
2022-10-01T11:22:24.977Z,98306.00
2022-10-01T11:24:22.633Z,98293.00
2022-10-01T11:26:20.541Z,98301.00
2022-10-01T11:28:07.615Z,98307.00
2022-10-01T11:30:02.274Z,98313.00
2022-10-01T11:31:46.269Z,98306.00
2022-10-01T11:33:33.892Z,98322.00
2022-10-01T11:35:49.547Z,98316.00
2022-10-01T11:37:48.363Z,98323.00
2022-10-01T11:39:25.842Z,98325.00
2022-10-01T11:41:15.031Z,98320.00
2022-10-01T11:42:51.444Z,98323.00
2022-10-01T11:44:32.687Z,98329.00
2022-10-01T11:46:15.628Z,98320.00
2022-10-01T11:47:54.672Z,98321.00
2022-10-01T11:49:48.681Z,98323.00
2022-10-01T11:51:31.910Z,98318.00
2022-10-01T11:53:14.373Z,98315.00
2022-10-01T11:55:22.609Z,98310.00
2022-10-01T11:57:17.027Z,98319.00
2022-10-01T11:58:57.205Z,98312.00
2022-10-01T12:00:31.531Z,98323.00
2022-10-01T12:02:20.981Z,98315.00
2022-10-01T12:04:16.599Z,98327.00
2022-10-01T12:05:52.916Z,98324.00
2022-10-01T12:07:37.588Z,98322.00
2022-10-01T12:09:21.382Z,98324.00
2022-10-01T12:11:01.221Z,98330.00
2022-10-01T12:12:48.372Z,98319.00
2022-10-01T12:14:31.332Z,98333.00
2022-10-01T12:16:14.080Z,98334.00
2022-10-01T12:17:54.353Z,98328.00
2022-10-01T12:19:32.776Z,98325.00
2022-10-01T12:21:17.243Z,98334.00
2022-10-01T12:22:53.076Z,98319.00
2022-10-01T12:24:34.759Z,98336.00
2022-10-01T12:26:23.513Z,98332.00
2022-10-01T12:28:10.579Z,98334.00
2022-10-01T12:29:52.789Z,98337.00
2022-10-01T12:31:39.432Z,98332.00
2022-10-01T12:33:45.065Z,98335.00
2022-10-01T12:35:43.908Z,98339.00
2022-10-01T12:37:33.196Z,98343.00
2022-10-01T12:39:26.112Z,98340.00
2022-10-01T12:41:15.549Z,98341.00
2022-10-01T12:43:08.041Z,98339.00
2022-10-01T12:45:02.909Z,98339.00
2022-10-01T12:46:47.394Z,98346.00
2022-10-01T12:48:35.835Z,98347.00
2022-10-01T12:50:31.709Z,98348.00
2022-10-01T12:52:18.261Z,98350.00
2022-10-01T12:54:11.569Z,98361.00
2022-10-01T12:56:04.677Z,98370.00
2022-10-01T12:57:49.291Z,98366.00
2022-10-01T12:59:49.700Z,98378.00
2022-10-01T13:01:40.867Z,98384.00
2022-10-01T13:03:36.793Z,98383.00
2022-10-01T13:05:24.151Z,98384.00
2022-10-01T13:07:27.734Z,98393.00
2022-10-01T13:09:17.494Z,98401.00
2022-10-01T13:11:05.548Z,98392.00
2022-10-01T13:13:01.542Z,98401.00
2022-10-01T13:14:36.901Z,98411.00
2022-10-01T13:16:20.468Z,98408.00
2022-10-01T13:18:03.428Z,98415.00
2022-10-01T13:19:46.245Z,98411.00
2022-10-01T13:21:30.408Z,98420.00
2022-10-01T13:23:13.440Z,98414.00
2022-10-01T13:24:54.469Z,98415.00
2022-10-01T13:26:39.659Z,98417.00
2022-10-01T13:28:21.459Z,98408.00
2022-10-01T13:30:04.991Z,98423.00
2022-10-01T13:31:52.736Z,98430.00
2022-10-01T13:33:31.975Z,98433.00
2022-10-01T13:35:31.622Z,98429.00
2022-10-01T13:37:17.898Z,98442.00
2022-10-01T13:38:51.744Z,98434.00
2022-10-01T13:40:29.874Z,98431.00
2022-10-01T13:42:07.227Z,98436.00
2022-10-01T13:43:56.190Z,98431.00
2022-10-01T13:45:40.931Z,98438.00
2022-10-01T13:47:22.826Z,98430.00
2022-10-01T13:48:57.489Z,98425.00
2022-10-01T13:50:31.283Z,98429.00
2022-10-01T13:52:05.951Z,98426.00
2022-10-01T13:53:49.898Z,98434.00
2022-10-01T13:55:30.965Z,98436.00
2022-10-01T13:57:11.565Z,98443.00
2022-10-01T13:58:46.583Z,98438.00
2022-10-01T14:00:24.775Z,98444.00
2022-10-01T14:01:59.895Z,98462.00
2022-10-01T14:03:46.024Z,98454.00
2022-10-01T14:05:35.073Z,98460.00
2022-10-01T14:07:18.694Z,98457.00
2022-10-01T14:09:01.707Z,98471.00
2022-10-01T14:11:00.462Z,98477.00
2022-10-01T14:12:54.731Z,98474.00
2022-10-01T14:15:08.979Z,98478.00
2022-10-01T14:16:47.135Z,98487.00
2022-10-01T14:18:26.085Z,98493.00
2022-10-01T14:20:01.749Z,98503.00
2022-10-01T14:21:53.884Z,98503.00
2022-10-01T14:23:36.892Z,98486.00
2022-10-01T14:25:30.451Z,98505.00
2022-10-01T14:27:16.405Z,98513.00
2022-10-01T14:29:05.685Z,98507.00
2022-10-01T14:30:50.021Z,98513.00
2022-10-01T14:32:41.793Z,98519.00
2022-10-01T14:34:34.234Z,98508.00
2022-10-01T14:36:16.968Z,98523.00
2022-10-01T14:37:51.872Z,98513.00
2022-10-01T14:39:27.668Z,98505.00
2022-10-01T14:41:02.014Z,98522.00
2022-10-01T14:42:35.321Z,98518.00
2022-10-01T14:44:25.955Z,98516.00
2022-10-01T14:46:02.551Z,98520.00
2022-10-01T14:47:35.900Z,98515.00
2022-10-01T14:49:23.870Z,98521.00
2022-10-01T14:51:01.316Z,98526.00
2022-10-01T14:52:35.157Z,98534.00
2022-10-01T14:54:14.531Z,98535.00
2022-10-01T14:55:49.976Z,98535.00
2022-10-01T14:57:31.535Z,98537.00
2022-10-01T14:59:07.160Z,98538.00
2022-10-01T15:00:51.013Z,98541.00
2022-10-01T15:02:27.329Z,98542.00
2022-10-01T15:04:00.807Z,98551.00
2022-10-01T15:05:38.437Z,98548.00
2022-10-01T15:07:16.805Z,98559.00
2022-10-01T15:08:51.962Z,98560.00
2022-10-01T15:10:29.188Z,98566.00
2022-10-01T15:12:06.460Z,98564.00
2022-10-01T15:13:44.077Z,98565.00
2022-10-01T15:15:25.486Z,98570.00
2022-10-01T15:17:03.374Z,98570.00
2022-10-01T15:18:38.524Z,98563.00
2022-10-01T15:20:14.094Z,98568.00
2022-10-01T15:21:53.086Z,98575.00
2022-10-01T15:23:29.036Z,98566.00
2022-10-01T15:25:03.492Z,98580.00
2022-10-01T15:26:37.499Z,98575.00
2022-10-01T15:28:16.101Z,98577.00
2022-10-01T15:29:56.449Z,98586.00
2022-10-01T15:31:30.766Z,98580.00
2022-10-01T15:33:04.753Z,98588.00
2022-10-01T15:34:40.320Z,98580.00
2022-10-01T15:36:18.160Z,98595.00
2022-10-01T15:37:55.154Z,98590.00
2022-10-01T15:39:35.216Z,98597.00
2022-10-01T15:41:31.597Z,98594.00
2022-10-01T15:43:28.924Z,98595.00
2022-10-01T15:45:25.522Z,98601.00
2022-10-01T15:47:26.864Z,98605.00
2022-10-01T15:49:19.186Z,98614.00
2022-10-01T15:51:01.586Z,98612.00
2022-10-01T15:52:51.326Z,98611.00
2022-10-01T15:54:26.756Z,98618.00
2022-10-01T15:56:10.541Z,98617.00
2022-10-01T15:57:45.127Z,98617.00
2022-10-01T15:59:21.853Z,98615.00
2022-10-01T16:01:03.235Z,98618.00
2022-10-01T16:02:37.241Z,98621.00
2022-10-01T16:04:13.924Z,98625.00
2022-10-01T16:05:50.336Z,98625.00
2022-10-01T16:07:30.882Z,98631.00
2022-10-01T16:09:11.765Z,98629.00
2022-10-01T16:10:47.109Z,98635.00
2022-10-01T16:12:23.712Z,98636.00
2022-10-01T16:14:31.717Z,98641.00
2022-10-01T16:16:21.033Z,98653.00
2022-10-01T16:17:58.561Z,98648.00
2022-10-01T16:19:32.616Z,98648.00
2022-10-01T16:21:09.348Z,98652.00
2022-10-01T16:22:44.209Z,98664.00
2022-10-01T16:24:29.197Z,98665.00
2022-10-01T16:26:05.965Z,98664.00
2022-10-01T16:27:47.291Z,98662.00
2022-10-01T16:29:26.756Z,98675.00
2022-10-01T16:31:00.634Z,98681.00
2022-10-01T16:32:35.818Z,98678.00
2022-10-01T16:34:18.071Z,98676.00
2022-10-01T16:35:51.700Z,98677.00
2022-10-01T16:37:25.237Z,98690.00
2022-10-01T16:38:58.512Z,98685.00
2022-10-01T16:40:35.119Z,98691.00
2022-10-01T16:42:24.436Z,98697.00
2022-10-01T16:43:59.324Z,98703.00
2022-10-01T16:45:39.075Z,98707.00
2022-10-01T16:47:13.445Z,98708.00
2022-10-01T16:48:51.472Z,98715.00
2022-10-01T16:50:26.053Z,98717.00
2022-10-01T16:51:59.371Z,98716.00
2022-10-01T16:53:32.737Z,98714.00
2022-10-01T16:55:16.132Z,98717.00
2022-10-01T16:56:50.605Z,98725.00
2022-10-01T16:58:25.563Z,98732.00
2022-10-01T16:59:58.815Z,98729.00
2022-10-01T17:01:32.470Z,98736.00
2022-10-01T17:03:09.096Z,98732.00
2022-10-01T17:04:42.909Z,98744.00
2022-10-01T17:06:16.289Z,98750.00
2022-10-01T17:07:50.081Z,98746.00
2022-10-01T17:09:24.385Z,98747.00
2022-10-01T17:11:00.846Z,98749.00
2022-10-01T17:12:34.179Z,98746.00
2022-10-01T17:14:18.261Z,98751.00
2022-10-01T17:15:52.686Z,98745.00
2022-10-01T17:17:26.369Z,98753.00
2022-10-01T17:19:00.450Z,98758.00
2022-10-01T17:20:35.249Z,98759.00
2022-10-01T17:22:09.593Z,98755.00
2022-10-01T17:23:42.953Z,98761.00
2022-10-01T17:25:17.262Z,98770.00
2022-10-01T17:26:50.516Z,98765.00
2022-10-01T17:28:24.337Z,98770.00
2022-10-01T17:29:59.093Z,98779.00
2022-10-01T17:31:34.788Z,98775.00
2022-10-01T17:33:09.693Z,98781.00
2022-10-01T17:34:43.604Z,98803.00
2022-10-01T17:36:16.893Z,98797.00
2022-10-01T17:37:50.385Z,98804.00
2022-10-01T17:39:23.725Z,98806.00
2022-10-01T17:40:57.065Z,98805.00
2022-10-01T17:42:32.613Z,98807.00
2022-10-01T17:44:06.437Z,98817.00
2022-10-01T17:45:41.212Z,98816.00
2022-10-01T17:47:15.120Z,98804.00
2022-10-01T17:48:50.920Z,98816.00
2022-10-01T17:50:24.557Z,98825.00
2022-10-01T17:51:57.765Z,98824.00
2022-10-01T17:53:38.277Z,98826.00
2022-10-01T17:55:14.835Z,98828.00
2022-10-01T17:56:48.596Z,98843.00
2022-10-01T17:58:21.888Z,98839.00
2022-10-01T17:59:55.329Z,98850.00
2022-10-01T18:01:30.175Z,98847.00
2022-10-01T18:03:03.770Z,98855.00
2022-10-01T18:04:43.040Z,98862.00
2022-10-01T18:06:17.029Z,98861.00
2022-10-01T18:07:50.428Z,98859.00
2022-10-01T18:09:24.211Z,98872.00
2022-10-01T18:11:05.977Z,98875.00
2022-10-01T18:12:40.651Z,98871.00
2022-10-01T18:14:14.117Z,98880.00
2022-10-01T18:15:47.464Z,98890.00
2022-10-01T18:17:22.271Z,98886.00
2022-10-01T18:20:50.529Z,98899.00
2022-10-01T18:22:24.451Z,98899.00
2022-10-01T18:24:03.309Z,98898.00
2022-10-01T18:25:38.272Z,98896.00
2022-10-01T18:27:13.245Z,98901.00
2022-10-01T18:28:47.012Z,98909.00
2022-10-01T18:30:20.949Z,98909.00
2022-10-01T18:32:08.112Z,98911.00
2022-10-01T18:33:47.099Z,98920.00
2022-10-01T18:35:29.521Z,98912.00
2022-10-01T18:37:09.133Z,98922.00
2022-10-01T18:38:43.801Z,98929.00
2022-10-01T18:40:22.037Z,98925.00
2022-10-01T18:41:56.105Z,98930.00
2022-10-01T18:43:37.409Z,98929.00
2022-10-01T18:45:18.045Z,98933.00
2022-10-01T18:47:04.537Z,98926.00
2022-10-01T18:49:01.358Z,98931.00
2022-10-01T18:50:46.877Z,98934.00
2022-10-01T18:52:36.671Z,98942.00
2022-10-01T18:54:40.386Z,98944.00
2022-10-01T18:56:31.564Z,98959.00
2022-10-01T18:58:33.338Z,98958.00
2022-10-01T19:00:13.876Z,98955.00
2022-10-01T19:02:09.346Z,98950.00
2022-10-01T19:04:25.404Z,98958.00
2022-10-01T19:06:20.889Z,98966.00
2022-10-01T19:08:07.805Z,98969.00
2022-10-01T19:09:56.957Z,98972.00
2022-10-01T19:11:45.294Z,98982.00
2022-10-01T19:13:27.609Z,98984.00
2022-10-01T19:15:14.840Z,98974.00
2022-10-01T19:17:04.184Z,98985.00
2022-10-01T19:19:08.519Z,99001.00
2022-10-01T19:20:58.677Z,98990.00
2022-10-01T19:22:49.685Z,98997.00
2022-10-01T19:24:43.809Z,98994.00
2022-10-01T19:26:27.220Z,99002.00
2022-10-01T19:28:22.858Z,98998.00
2022-10-01T19:30:08.412Z,99001.00